Time;durP1;ratioP1;P1;durP2;ratioP2;P2;SDS_P1;SDS_P2;PMS_P1;PMS_P2;Temp;Humidity;BMP_temperature;BMP_pressure;BME280_temperature;BME280_humidity;BME280_pressure;Samples;Min_cycle;Max_cycle;Signal;HPM_P1;HPM_P2
2022/04/28 00:02:12;;;;;;;9.63;4.68;;;13.80;67.40;;;;;;5014618;28;20468;-62
2022/04/28 00:04:38;;;;;;;10.00;4.90;;;13.80;67.30;;;;;;5014372;28;20435;-59
2022/04/28 00:07:04;;;;;;;8.35;4.47;;;13.80;67.10;;;;;;5014517;28;20068;-55
2022/04/28 00:09:30;;;;;;;11.65;4.88;;;13.80;67.20;;;;;;5014661;28;20129;-52
2022/04/28 00:11:55;;;;;;;12.40;4.60;;;13.80;67.30;;;;;;5014569;28;20030;-58
2022/04/28 00:14:21;;;;;;;11.07;4.38;;;13.70;67.50;;;;;;5014410;28;20151;-59
2022/04/28 00:16:47;;;;;;;12.18;4.78;;;13.70;67.30;;;;;;5014519;28;20449;-65
2022/04/28 00:19:13;;;;;;;9.13;3.80;;;13.70;67.20;;;;;;5014060;28;20849;-58
2022/04/28 00:21:38;;;;;;;10.05;3.97;;;13.70;67.20;;;;;;5014264;28;20034;-56
2022/04/28 00:24:04;;;;;;;5.07;3.97;;;13.70;67.00;;;;;;5014217;28;20061;-53
2022/04/28 00:26:30;;;;;;;11.38;4.45;;;13.70;67.10;;;;;;5014303;28;20060;-57
2022/04/28 00:28:55;;;;;;;11.55;4.65;;;13.70;67.20;;;;;;5014316;28;20038;-55
2022/04/28 00:31:21;;;;;;;11.82;4.90;;;13.60;67.60;;;;;;5013840;28;20088;-54
2022/04/28 00:33:48;;;;;;;9.40;4.38;;;13.60;67.40;;;;;;5013841;28;20030;-53
2022/04/28 00:36:16;;;;;;;9.75;4.90;;;13.60;67.20;;;;;;5014098;28;20052;-54
2022/04/28 00:38:42;;;;;;;9.23;4.28;;;13.50;67.30;;;;;;5014155;28;20455;-65
2022/04/28 00:41:08;;;;;;;7.53;4.05;;;13.50;67.60;;;;;;5013881;28;20037;-55
2022/04/28 00:43:48;;;;;;;8.90;4.13;;;13.50;67.60;;;;;;5013425;28;20459;-54
2022/04/28 00:46:13;;;;;;;11.32;4.55;;;13.50;67.60;;;;;;5014074;28;20014;-55
2022/04/28 00:51:23;;;;;;;16.10;4.72;;;13.50;67.40;;;;;;5013834;28;20117;-56
2022/04/28 00:53:51;;;;;;;11.52;4.82;;;13.50;67.60;;;;;;5013922;28;20030;-53
2022/04/28 00:56:17;;;;;;;11.38;3.67;;;13.50;67.50;;;;;;5013647;28;20464;-57
2022/04/28 00:58:43;;;;;;;8.98;4.50;;;13.40;67.80;;;;;;5013868;28;20022;-53
2022/04/28 01:01:09;;;;;;;8.20;4.88;;;13.40;67.60;;;;;;5013707;28;20040;-51
2022/04/28 01:03:35;;;;;;;9.63;4.38;;;13.30;67.80;;;;;;5013740;28;20026;-59
2022/04/28 01:06:01;;;;;;;8.35;4.30;;;13.40;67.80;;;;;;5013520;28;20149;-54
2022/04/28 01:08:28;;;;;;;12.32;4.15;;;13.40;68.00;;;;;;5013534;28;20477;-55
2022/04/28 01:10:54;;;;;;;9.98;4.75;;;13.30;67.80;;;;;;5013382;28;20026;-63
2022/04/28 01:13:20;;;;;;;9.10;4.65;;;13.30;68.60;;;;;;5013685;28;20034;-65
2022/04/28 01:15:47;;;;;;;11.38;4.85;;;13.30;68.10;;;;;;5013389;28;20486;-66
2022/04/28 01:18:14;;;;;;;11.25;4.97;;;13.40;68.00;;;;;;5013188;28;20056;-53
2022/04/28 01:20:40;;;;;;;10.55;4.70;;;13.30;68.20;;;;;;5013319;28;20048;-63
2022/04/28 01:23:06;;;;;;;6.13;4.20;;;13.30;68.00;;;;;;5013659;28;20022;-65
2022/04/28 01:25:32;;;;;;;8.73;4.63;;;13.30;68.00;;;;;;5013127;28;20037;-65
2022/04/28 01:27:58;;;;;;;14.38;5.28;;;13.20;68.20;;;;;;5013424;28;20479;-66
2022/04/28 01:30:24;;;;;;;16.52;5.40;;;13.20;68.40;;;;;;5013514;28;20395;-64
2022/04/28 01:32:51;;;;;;;8.38;4.05;;;13.20;68.20;;;;;;5012867;28;20418;-55
2022/04/28 01:35:17;;;;;;;8.02;4.63;;;13.20;68.50;;;;;;5013181;28;20029;-66
2022/04/28 01:37:42;;;;;;;7.82;4.53;;;13.20;68.40;;;;;;5013304;28;20030;-56
2022/04/28 01:40:11;;;;;;;15.20;5.35;;;13.20;68.50;;;;;;5013229;28;20022;-64
2022/04/28 01:42:45;;;;;;;11.23;5.07;;;13.10;68.50;;;;;;5013123;28;20022;-58
2022/04/28 01:45:11;;;;;;;8.02;4.68;;;13.10;68.40;;;;;;5013242;28;20076;-56
2022/04/28 01:47:37;;;;;;;10.35;4.60;;;13.20;68.60;;;;;;5012953;28;20018;-57
2022/04/28 01:50:05;;;;;;;8.63;4.68;;;13.10;68.40;;;;;;5013207;28;20031;-62
2022/04/28 01:55:15;;;;;;;9.93;5.20;;;13.10;68.90;;;;;;5015465;28;20052;-63
2022/04/28 01:57:41;;;;;;;10.18;4.70;;;13.10;69.00;;;;;;5017059;28;20030;-64
2022/04/28 02:00:08;;;;;;;11.48;4.65;;;13.10;69.10;;;;;;5017085;28;20129;-64
2022/04/28 02:02:34;;;;;;;7.65;4.70;;;13.00;69.30;;;;;;5015143;28;20092;-57
2022/04/28 02:05:01;;;;;;;12.98;4.80;;;13.00;69.20;;;;;;5017024;28;20097;-64
2022/04/28 02:07:28;;;;;;;8.35;4.82;;;13.00;69.10;;;;;;5016991;28;20022;-66
2022/04/28 02:09:54;;;;;;;13.50;5.20;;;13.00;69.30;;;;;;5017063;28;20076;-59
2022/04/28 02:12:20;;;;;;;9.98;5.07;;;13.00;69.60;;;;;;5016293;28;20057;-64
2022/04/28 02:14:46;;;;;;;11.80;4.53;;;13.00;69.80;;;;;;5016631;28;20123;-65
2022/04/28 02:17:16;;;;;;;7.10;4.57;;;13.00;69.80;;;;;;5016672;28;20026;-64
2022/04/28 02:19:42;;;;;;;11.40;5.05;;;12.90;70.50;;;;;;5016648;28;20077;-62
2022/04/28 02:22:07;;;;;;;10.30;4.50;;;12.90;70.10;;;;;;5016518;28;20034;-65
2022/04/28 02:24:33;;;;;;;14.43;4.82;;;12.90;70.10;;;;;;5016617;28;20044;-66
2022/04/28 02:26:59;;;;;;;10.45;4.43;;;12.90;70.00;;;;;;5016380;28;20069;-65
2022/04/28 02:29:24;;;;;;;12.15;5.43;;;13.00;70.10;;;;;;5016198;28;20030;-60
2022/04/28 02:31:50;;;;;;;8.68;4.28;;;12.90;70.00;;;;;;5016061;28;20034;-61
2022/04/28 02:34:15;;;;;;;11.00;4.65;;;12.90;70.20;;;;;;5016175;28;20026;-65
2022/04/28 02:36:41;;;;;;;9.45;4.78;;;12.90;70.20;;;;;;5015104;28;20022;-65
2022/04/28 02:39:06;;;;;;;7.88;4.32;;;12.90;70.40;;;;;;5016109;28;20029;-58
2022/04/28 02:41:32;;;;;;;10.35;4.47;;;12.90;70.40;;;;;;5016248;28;20356;-65
2022/04/28 02:43:57;;;;;;;9.70;4.90;;;12.80;70.50;;;;;;5015816;28;20360;-61
2022/04/28 02:46:23;;;;;;;11.27;5.03;;;12.80;70.50;;;;;;5016023;28;20435;-66
2022/04/28 02:48:49;;;;;;;9.30;4.57;;;12.80;70.70;;;;;;5016000;28;20554;-63
2022/04/28 02:51:15;;;;;;;11.50;4.65;;;12.80;70.70;;;;;;5015975;28;20048;-61
2022/04/28 02:53:41;;;;;;;9.05;4.68;;;12.80;70.70;;;;;;5015991;28;20026;-61
2022/04/28 02:56:06;;;;;;;11.23;4.82;;;12.70;70.70;;;;;;5015987;28;20037;-60
2022/04/28 02:58:36;;;;;;;11.88;5.00;;;12.70;71.00;;;;;;5015514;28;20113;-64
2022/04/28 03:01:02;;;;;;;9.40;4.72;;;12.70;70.90;;;;;;5009406;28;20148;-65
2022/04/28 03:03:28;;;;;;;8.45;4.53;;;12.70;71.00;;;;;;5015567;28;20018;-66
2022/04/28 03:11:22;;;;;;;11.38;5.00;;;12.60;71.30;;;;;;5015715;28;20452;-65
2022/04/28 03:13:47;;;;;;;12.57;4.88;;;12.70;71.20;;;;;;5015322;28;20535;-66
2022/04/28 03:16:13;;;;;;;11.13;4.60;;;12.70;71.20;;;;;;5015721;28;20494;-66
2022/04/28 03:18:39;;;;;;;10.88;5.32;;;12.70;71.10;;;;;;5015376;28;20029;-65
2022/04/28 03:21:05;;;;;;;12.18;5.70;;;12.60;71.20;;;;;;5015551;28;20144;-66
2022/04/28 03:23:30;;;;;;;9.95;4.60;;;12.60;71.30;;;;;;5015406;28;20022;-66
2022/04/28 03:25:56;;;;;;;10.65;4.95;;;12.60;71.30;;;;;;5015143;28;20037;-63
2022/04/28 03:28:22;;;;;;;10.68;4.80;;;12.60;71.20;;;;;;5015078;28;20029;-64
2022/04/28 03:30:51;;;;;;;12.25;4.38;;;12.60;71.20;;;;;;5015390;28;20026;-58
2022/04/28 03:33:18;;;;;;;11.68;5.32;;;12.60;71.20;;;;;;5015100;28;20033;-65
2022/04/28 03:35:43;;;;;;;11.30;5.00;;;12.50;71.40;;;;;;5015409;28;20025;-66
2022/04/28 03:38:13;;;;;;;7.95;4.90;;;12.50;71.40;;;;;;5015135;28;20034;-56
2022/04/28 03:40:42;;;;;;;11.02;4.97;;;12.50;71.70;;;;;;5015126;28;20030;-65
2022/04/28 03:43:09;;;;;;;9.10;4.75;;;12.50;71.50;;;;;;5014841;28;20044;-56
2022/04/28 03:45:35;;;;;;;10.88;5.10;;;12.50;71.60;;;;;;5015276;28;20022;-65
2022/04/28 03:48:01;;;;;;;11.13;5.30;;;12.50;71.60;;;;;;5015057;28;20026;-64
2022/04/28 03:50:29;;;;;;;8.32;4.85;;;12.50;71.60;;;;;;5014927;28;20057;-60
2022/04/28 03:52:55;;;;;;;12.20;5.32;;;12.50;71.60;;;;;;5015014;28;20446;-53
2022/04/28 03:55:21;;;;;;;13.75;5.40;;;12.40;71.70;;;;;;5014689;28;20044;-54
2022/04/28 03:57:46;;;;;;;10.95;4.90;;;12.40;71.70;;;;;;5014789;28;20438;-59
2022/04/28 04:00:13;;;;;;;10.98;5.55;;;12.40;71.90;;;;;;5014748;28;20049;-65
2022/04/28 04:02:38;;;;;;;12.38;5.30;;;12.40;71.90;;;;;;5014633;28;20025;-64
2022/04/28 04:05:05;;;;;;;11.25;4.82;;;12.40;71.80;;;;;;5014861;28;20018;-66
2022/04/28 04:07:31;;;;;;;11.05;5.43;;;12.40;71.90;;;;;;5014597;28;20037;-62
2022/04/28 04:09:57;;;;;;;10.20;4.93;;;12.40;71.90;;;;;;5014385;28;20122;-62
2022/04/28 04:12:25;;;;;;;13.95;5.93;;;12.30;72.10;;;;;;5014213;28;20100;-61
2022/04/28 04:14:54;;;;;;;12.70;5.93;;;12.30;72.10;;;;;;5014418;28;20471;-64
2022/04/28 04:17:19;;;;;;;7.75;5.07;;;12.30;72.20;;;;;;5014183;28;20038;-65
2022/04/28 04:19:45;;;;;;;12.43;5.25;;;12.30;72.10;;;;;;5013865;28;20026;-64
2022/04/28 04:22:11;;;;;;;13.23;5.60;;;12.30;72.00;;;;;;5014320;28;20026;-65
2022/04/28 04:24:36;;;;;;;10.13;5.32;;;12.30;72.30;;;;;;5014064;28;20115;-55
2022/04/28 04:27:02;;;;;;;8.90;5.38;;;12.40;70.20;;;;;;5013962;28;20041;-66
2022/04/28 04:29:28;;;;;;;14.52;6.22;;;12.40;69.70;;;;;;5014262;28;20081;-65
2022/04/28 04:34:38;;;;;;;13.13;6.05;;;12.30;69.50;;;;;;5014158;28;20048;-50
2022/04/28 04:37:04;;;;;;;11.13;5.95;;;12.20;70.40;;;;;;5014316;28;20100;-54
2022/04/28 04:39:29;;;;;;;12.23;5.63;;;12.10;70.50;;;;;;5014062;28;20152;-65
2022/04/28 04:41:55;;;;;;;13.32;5.95;;;12.30;70.00;;;;;;5013922;28;20060;-64
2022/04/28 04:44:21;;;;;;;12.82;5.88;;;12.20;70.40;;;;;;5014031;28;20029;-64
2022/04/28 04:46:46;;;;;;;14.23;5.72;;;12.20;69.90;;;;;;5013909;28;20022;-56
2022/04/28 04:49:12;;;;;;;13.55;5.97;;;12.30;69.40;;;;;;5013887;28;20022;-65
2022/04/28 04:51:37;;;;;;;15.15;6.10;;;12.30;69.30;;;;;;5013614;28;20545;-65
2022/04/28 04:54:03;;;;;;;12.07;6.10;;;12.30;69.40;;;;;;5013902;28;20456;-65
2022/04/28 04:56:29;;;;;;;11.65;6.18;;;12.30;69.30;;;;;;5013668;28;20434;-61
2022/04/28 04:58:54;;;;;;;11.15;5.85;;;12.30;69.60;;;;;;5013854;28;20096;-66
2022/04/28 05:01:20;;;;;;;16.55;6.50;;;12.30;69.40;;;;;;5010422;28;20025;-63
2022/04/28 05:03:45;;;;;;;11.00;6.82;;;12.20;69.60;;;;;;5013281;28;20029;-51
2022/04/28 05:06:11;;;;;;;14.27;6.63;;;12.20;69.70;;;;;;5011817;28;20033;-64
2022/04/28 05:08:37;;;;;;;16.70;5.97;;;12.20;69.90;;;;;;5013207;28;20038;-66
2022/04/28 05:11:02;;;;;;;11.75;5.57;;;12.20;70.10;;;;;;5012910;28;20014;-60
2022/04/28 05:13:28;;;;;;;12.07;6.00;;;12.20;70.00;;;;;;5013122;28;20042;-56
2022/04/28 05:15:53;;;;;;;12.38;5.72;;;12.20;70.10;;;;;;5007986;28;20022;-59
2022/04/28 05:18:19;;;;;;;12.48;5.80;;;12.20;70.20;;;;;;5011258;28;20435;-54
2022/04/28 05:20:45;;;;;;;16.33;6.57;;;12.20;70.10;;;;;;5009795;28;20076;-56
2022/04/28 05:23:10;;;;;;;14.75;6.30;;;12.20;70.30;;;;;;5013326;28;20485;-53
2022/04/28 05:25:36;;;;;;;15.88;6.82;;;12.20;70.40;;;;;;5011635;28;20040;-57
2022/04/28 05:28:02;;;;;;;16.90;6.72;;;12.20;70.30;;;;;;5017165;28;20030;-53
2022/04/28 05:30:28;;;;;;;15.05;6.43;;;12.20;70.50;;;;;;5010133;28;20052;-53
2022/04/28 05:32:53;;;;;;;12.27;6.70;;;12.20;70.50;;;;;;5010591;28;20065;-66
2022/04/28 05:35:19;;;;;;;12.48;6.55;;;12.20;70.60;;;;;;5011862;28;20030;-57
2022/04/28 05:37:45;;;;;;;14.10;6.50;;;12.20;70.80;;;;;;5020441;28;20069;-56
2022/04/28 05:40:13;;;;;;;15.15;6.95;;;12.20;70.90;;;;;;5011130;28;20414;-52
2022/04/28 05:45:41;;;;;;;13.95;6.20;;;12.20;71.20;;;;;;5007683;28;20033;-52
2022/04/28 05:48:08;;;;;;;18.67;6.80;;;12.20;72.30;;;;;;5010441;28;20026;-54
2022/04/28 05:50:34;;;;;;;11.95;6.72;;;12.20;72.20;;;;;;5010886;28;20472;-53
2022/04/28 05:52:59;;;;;;;13.65;7.45;;;12.20;72.10;;;;;;5013631;28;20034;-56
2022/04/28 05:55:25;;;;;;;14.85;7.85;;;12.20;72.20;;;;;;5010902;28;20030;-51
2022/04/28 05:57:51;;;;;;;17.25;8.38;;;12.30;72.20;;;;;;5009423;28;20045;-63
2022/04/28 06:00:17;;;;;;;15.07;6.75;;;12.30;71.80;;;;;;5008900;28;20045;-65
2022/04/28 06:02:43;;;;;;;15.20;8.02;;;12.40;71.60;;;;;;5010436;28;20026;-57
2022/04/28 06:05:08;;;;;;;14.35;7.30;;;12.40;71.90;;;;;;5012030;28;20036;-59
2022/04/28 06:07:34;;;;;;;15.60;6.45;;;12.40;71.90;;;;;;5009455;28;20105;-53
2022/04/28 06:10:00;;;;;;;14.90;6.68;;;12.40;72.10;;;;;;5011159;28;20029;-58
2022/04/28 06:12:27;;;;;;;15.15;7.60;;;12.50;71.80;;;;;;5007138;28;20100;-65
2022/04/28 06:14:54;;;;;;;14.02;7.70;;;12.60;71.40;;;;;;5009012;28;20056;-56
2022/04/28 06:17:19;;;;;;;20.02;7.47;;;12.60;71.20;;;;;;5005714;28;20483;-55
2022/04/28 06:19:45;;;;;;;16.90;8.13;;;12.60;71.20;;;;;;5002075;28;20026;-65
2022/04/28 06:22:10;;;;;;;15.00;7.65;;;12.60;71.40;;;;;;5007259;28;20037;-65
2022/04/28 06:24:36;;;;;;;14.15;7.18;;;12.70;71.50;;;;;;5011674;28;20022;-57
2022/04/28 06:27:02;;;;;;;19.30;7.35;;;12.70;71.70;;;;;;5010079;28;20108;-55
2022/04/28 06:29:27;;;;;;;16.35;7.75;;;12.80;71.10;;;;;;5014192;28;20105;-63
2022/04/28 06:31:53;;;;;;;15.20;7.05;;;12.80;71.10;;;;;;5024698;28;20431;-64
2022/04/28 06:34:19;;;;;;;13.25;7.18;;;12.80;71.30;;;;;;5010685;28;20398;-60
2022/04/28 06:36:44;;;;;;;17.73;7.47;;;12.90;71.10;;;;;;5011301;28;20471;-65
2022/04/28 06:39:10;;;;;;;13.27;6.75;;;12.90;70.70;;;;;;5015597;28;20022;-64
2022/04/28 06:41:35;;;;;;;13.27;7.00;;;12.90;70.40;;;;;;5012102;28;20025;-64
2022/04/28 06:44:01;;;;;;;16.00;6.63;;;13.00;70.60;;;;;;5015173;28;20044;-60
2022/04/28 06:46:28;;;;;;;13.98;6.20;;;13.10;70.40;;;;;;5015382;28;20034;-57
2022/04/28 06:48:53;;;;;;;12.55;6.35;;;13.10;70.80;;;;;;5014357;28;20029;-63
2022/04/28 06:51:19;;;;;;;13.63;6.90;;;13.20;70.30;;;;;;5014895;28;20026;-54
2022/04/28 06:53:44;;;;;;;11.52;7.03;;;13.30;69.70;;;;;;5015649;28;20034;-54
2022/04/28 06:56:10;;;;;;;12.70;7.32;;;13.30;69.10;;;;;;5014600;28;20038;-53
2022/04/28 06:58:37;;;;;;;19.30;7.53;;;13.30;68.90;;;;;;5015414;28;20041;-50
2022/04/28 07:01:03;;;;;;;15.77;7.40;;;13.30;69.00;;;;;;5015369;28;20045;-54
2022/04/28 07:03:29;;;;;;;12.40;7.15;;;13.40;68.80;;;;;;5015227;28;20026;-55
2022/04/28 07:05:54;;;;;;;12.25;7.60;;;13.40;68.50;;;;;;5009170;28;20061;-57
2022/04/28 07:08:20;;;;;;;21.85;6.65;;;13.40;68.60;;;;;;5011999;28;20116;-50
2022/04/28 07:10:45;;;;;;;11.13;6.65;;;13.50;68.60;;;;;;5015429;28;20022;-54
2022/04/28 07:13:11;;;;;;;14.82;6.88;;;13.60;68.90;;;;;;5013652;28;20033;-54
2022/04/28 07:15:38;;;;;;;10.68;6.70;;;13.60;67.90;;;;;;5014964;28;20796;-65
2022/04/28 07:18:05;;;;;;;13.70;6.70;;;13.60;67.80;;;;;;5014064;28;20526;-61
2022/04/28 07:20:34;;;;;;;13.35;6.20;;;13.70;67.70;;;;;;5012736;28;20026;-65
2022/04/28 07:23:01;;;;;;;10.60;5.93;;;13.80;67.40;;;;;;5016038;28;20428;-64
2022/04/28 07:25:27;;;;;;;14.85;6.32;;;13.70;67.80;;;;;;5018919;28;20030;-50
2022/04/28 07:27:54;;;;;;;12.07;6.53;;;13.90;67.00;;;;;;5014550;28;20034;-63
2022/04/28 07:30:20;;;;;;;13.90;6.45;;;13.90;67.20;;;;;;5013213;28;20018;-55
2022/04/28 07:32:47;;;;;;;13.10;7.05;;;14.00;66.90;;;;;;5013606;28;20034;-64
2022/04/28 07:35:13;;;;;;;13.93;6.80;;;14.00;66.50;;;;;;5013156;28;20425;-64
2022/04/28 07:37:38;;;;;;;17.00;6.60;;;14.00;66.50;;;;;;5013647;28;20125;-60
2022/04/28 07:40:04;;;;;;;11.45;6.47;;;14.10;66.70;;;;;;5013214;28;20036;-62
2022/04/28 07:42:30;;;;;;;13.68;6.30;;;14.20;66.40;;;;;;5015040;28;20057;-60
2022/04/28 07:44:56;;;;;;;13.07;6.65;;;14.20;66.70;;;;;;5014919;28;20068;-60
2022/04/28 07:47:22;;;;;;;14.88;7.40;;;14.20;66.10;;;;;;5015083;28;20104;-56
2022/04/28 07:49:47;;;;;;;11.57;6.47;;;14.30;66.30;;;;;;5014035;28;20479;-63
2022/04/28 07:52:13;;;;;;;14.93;7.05;;;14.30;66.30;;;;;;5014184;28;20036;-64
2022/04/28 07:54:38;;;;;;;15.18;6.90;;;14.40;66.40;;;;;;5014946;28;20026;-63
2022/04/28 07:57:04;;;;;;;13.82;6.80;;;14.40;66.30;;;;;;5014653;28;20041;-57
2022/04/28 07:59:29;;;;;;;13.30;6.22;;;14.50;65.70;;;;;;5014737;28;20030;-56
2022/04/28 08:01:55;;;;;;;12.88;6.72;;;14.50;65.80;;;;;;5014912;28;20463;-58
2022/04/28 08:04:21;;;;;;;15.52;7.00;;;14.60;66.10;;;;;;5014534;28;20026;-56
2022/04/28 08:06:46;;;;;;;11.27;6.72;;;14.60;66.70;;;;;;5014819;28;20076;-53
2022/04/28 08:09:12;;;;;;;13.60;7.55;;;14.70;65.80;;;;;;5014201;28;20025;-53
2022/04/28 08:11:40;;;;;;;11.20;6.40;;;14.70;65.60;;;;;;5015025;28;20101;-55
2022/04/28 08:14:06;;;;;;;11.00;5.97;;;14.70;65.70;;;;;;5014703;28;20025;-52
2022/04/28 08:16:31;;;;;;;11.32;6.50;;;14.80;65.40;;;;;;5014585;28;20022;-53
2022/04/28 08:18:57;;;;;;;13.90;6.60;;;14.80;65.00;;;;;;5011343;28;20046;-55
2022/04/28 08:21:22;;;;;;;15.20;6.45;;;14.80;64.60;;;;;;5014494;28;20041;-58
2022/04/28 08:23:48;;;;;;;18.27;7.40;;;14.90;65.20;;;;;;5004303;28;20407;-57
2022/04/28 08:26:13;;;;;;;9.68;6.53;;;14.90;64.30;;;;;;5013676;28;20037;-64
2022/04/28 08:28:39;;;;;;;12.65;6.65;;;15.00;63.90;;;;;;5016496;28;20030;-61
2022/04/28 08:31:04;;;;;;;13.55;6.97;;;15.00;63.80;;;;;;5013275;28;20525;-58
2022/04/28 08:33:30;;;;;;;12.60;7.25;;;15.00;63.60;;;;;;5012145;28;20064;-57
2022/04/28 08:35:56;;;;;;;11.27;7.40;;;15.00;63.90;;;;;;5007924;28;20480;-64
2022/04/28 08:38:21;;;;;;;14.93;6.57;;;15.10;64.30;;;;;;5013622;28;20026;-64
2022/04/28 08:40:51;;;;;;;13.63;6.82;;;15.10;63.80;;;;;;5013671;28;20014;-59
2022/04/28 08:43:17;;;;;;;11.27;7.10;;;15.10;64.10;;;;;;5013679;28;20062;-59
2022/04/28 08:48:36;;;;;;;10.82;7.20;;;15.20;64.20;;;;;;5013912;28;20040;-57
2022/04/28 08:51:02;;;;;;;14.10;8.00;;;15.20;64.60;;;;;;5013629;28;20156;-61
2022/04/28 08:53:27;;;;;;;18.13;8.02;;;15.20;64.60;;;;;;5013849;28;20113;-64
2022/04/28 08:55:57;;;;;;;13.18;6.93;;;15.30;64.30;;;;;;5013709;28;20028;-51
2022/04/28 08:58:23;;;;;;;14.10;7.95;;;15.30;64.70;;;;;;5013743;28;20022;-61
2022/04/28 09:00:48;;;;;;;11.45;7.78;;;15.40;64.00;;;;;;5013421;28;20029;-63
2022/04/28 09:03:14;;;;;;;12.35;8.18;;;15.40;63.40;;;;;;5013752;28;20022;-52
2022/04/28 09:05:40;;;;;;;13.05;7.78;;;15.40;64.00;;;;;;5013188;28;20030;-55
2022/04/28 09:08:06;;;;;;;11.50;7.55;;;15.50;63.60;;;;;;5013513;28;20026;-55
2022/04/28 09:10:32;;;;;;;14.15;8.48;;;15.50;63.50;;;;;;5013619;28;20100;-61
2022/04/28 09:15:51;;;;;;;13.50;9.02;;;15.50;63.80;;;;;;5013557;28;20044;-59
2022/04/28 09:18:18;;;;;;;16.10;8.57;;;15.50;64.10;;;;;;5013326;28;20048;-64
2022/04/28 09:20:45;;;;;;;13.55;8.35;;;15.50;64.20;;;;;;5013209;28;20022;-64
2022/04/28 09:23:12;;;;;;;12.75;8.82;;;15.60;64.00;;;;;;5013539;28;20073;-62
2022/04/28 09:25:39;;;;;;;15.93;9.85;;;15.60;63.90;;;;;;5013419;28;20034;-62
2022/04/28 09:28:08;;;;;;;15.40;9.15;;;15.60;63.80;;;;;;5013222;28;20033;-62
2022/04/28 09:30:49;;;;;;;13.73;9.15;;;15.60;63.60;;;;;;5013159;28;20029;-61
2022/04/28 09:33:20;;;;;;;10.00;8.30;;;15.60;64.00;;;;;;5013284;28;20411;-53
2022/04/28 09:35:50;;;;;;;13.75;8.02;;;15.60;64.00;;;;;;5013445;28;20014;-52
2022/04/28 09:38:17;;;;;;;15.32;9.43;;;15.60;64.00;;;;;;5013274;28;20030;-64
2022/04/28 09:43:32;;;;;;;15.00;8.20;;;15.80;64.00;;;;;;5011332;28;20446;-54
2022/04/28 09:45:59;;;;;;;16.95;8.18;;;15.70;64.00;;;;;;5012622;28;20017;-53
2022/04/28 09:48:28;;;;;;;12.93;9.35;;;15.80;64.20;;;;;;5013459;28;20116;-64
2022/04/28 09:51:07;;;;;;;12.00;8.00;;;15.80;62.90;;;;;;5012187;28;20021;-64
2022/04/28 09:53:35;;;;;;;15.57;9.70;;;15.80;63.00;;;;;;5013114;28;20045;-60
2022/04/28 09:56:03;;;;;;;13.27;9.45;;;15.80;63.40;;;;;;5013133;28;20029;-62
2022/04/28 09:58:29;;;;;;;12.05;8.93;;;15.90;63.70;;;;;;5012762;28;20034;-63
2022/04/28 10:01:00;;;;;;;12.77;8.70;;;15.90;63.70;;;;;;5012348;28;20083;-65
2022/04/28 10:03:28;;;;;;;12.07;8.05;;;15.90;63.40;;;;;;5011770;28;20022;-64
2022/04/28 10:05:55;;;;;;;12.00;9.18;;;15.90;63.20;;;;;;5012318;28;20395;-57
2022/04/28 10:08:21;;;;;;;11.07;8.15;;;15.90;63.20;;;;;;5012469;28;20035;-58
2022/04/28 10:10:50;;;;;;;17.58;8.73;;;16.00;63.30;;;;;;5000139;28;20033;-54
2022/04/28 10:13:17;;;;;;;17.17;9.18;;;16.00;62.60;;;;;;4992877;28;20130;-57
2022/04/28 10:15:42;;;;;;;16.13;9.65;;;16.00;62.90;;;;;;5020938;28;20391;-57
2022/04/28 10:18:13;;;;;;;10.52;8.82;;;16.00;62.60;;;;;;5036329;28;20026;-61
2022/04/28 10:20:47;;;;;;;15.60;10.55;;;16.10;62.80;;;;;;5033825;28;20030;-51
2022/04/28 10:23:15;;;;;;;14.98;9.45;;;16.10;63.10;;;;;;5005162;28;20097;-64
2022/04/28 10:34:15;;;;;;;16.05;10.07;;;16.10;62.80;;;;;;5015998;28;20037;-56
2022/04/28 10:37:03;;;;;;;17.02;10.80;;;16.10;63.40;;;;;;5010094;28;20018;-62
2022/04/28 10:39:39;;;;;;;16.00;11.15;;;16.10;63.40;;;;;;5012336;28;20049;-53
2022/04/28 10:42:20;;;;;;;16.20;10.23;;;16.10;63.40;;;;;;5015503;28;20029;-54
2022/04/28 10:44:54;;;;;;;18.08;11.05;;;16.20;63.30;;;;;;5015751;28;20067;-62
2022/04/28 10:47:41;;;;;;;19.73;12.20;;;16.20;62.70;;;;;;5013366;28;20030;-54
2022/04/28 10:50:22;;;;;;;13.77;10.32;;;16.20;62.50;;;;;;5014083;28;20026;-56
2022/04/28 10:52:55;;;;;;;14.25;10.63;;;16.20;62.80;;;;;;5015518;28;20037;-55
2022/04/28 10:55:23;;;;;;;14.68;11.05;;;16.20;62.80;;;;;;5015586;28;20061;-54
2022/04/28 10:57:49;;;;;;;15.07;11.48;;;16.20;62.80;;;;;;5013436;28;20030;-54
2022/04/28 11:00:33;;;;;;;12.38;10.68;;;16.20;62.70;;;;;;5015311;28;20029;-55
2022/04/28 11:02:59;;;;;;;12.00;9.38;;;16.30;62.80;;;;;;5012152;28;20353;-62
2022/04/28 11:05:35;;;;;;;12.10;9.10;;;16.30;62.60;;;;;;5015353;28;20041;-54
2022/04/28 11:08:01;;;;;;;16.08;11.00;;;16.30;62.90;;;;;;5013697;28;20026;-63
2022/04/28 11:10:28;;;;;;;13.27;10.68;;;16.30;62.60;;;;;;5015403;28;20075;-63
2022/04/28 11:12:54;;;;;;;16.55;11.40;;;16.30;62.30;;;;;;5014695;28;20112;-64
2022/04/28 11:15:21;;;;;;;15.15;10.52;;;16.40;62.50;;;;;;5015226;28;20110;-58
2022/04/28 11:17:46;;;;;;;12.38;10.88;;;16.40;62.60;;;;;;5014689;28;20064;-62
2022/04/28 11:20:14;;;;;;;18.35;10.93;;;16.40;62.50;;;;;;5014882;28;20399;-64
2022/04/28 11:22:45;;;;;;;17.38;11.40;;;16.40;62.70;;;;;;5015129;28;20033;-63
2022/04/28 11:25:13;;;;;;;15.98;11.23;;;16.40;62.30;;;;;;5014451;28;20490;-56
2022/04/28 11:27:39;;;;;;;16.08;12.35;;;16.40;62.50;;;;;;4994889;28;20525;-62
2022/04/28 11:30:06;;;;;;;18.88;11.73;;;16.40;62.70;;;;;;4995502;28;20031;-55
2022/04/28 11:32:31;;;;;;;14.88;12.00;;;16.40;62.90;;;;;;4994992;28;20030;-57
2022/04/28 11:34:57;;;;;;;18.20;11.52;;;16.50;62.70;;;;;;5013969;28;20045;-63
2022/04/28 11:37:25;;;;;;;16.73;12.85;;;16.50;62.70;;;;;;5013311;28;20025;-54
2022/04/28 11:39:56;;;;;;;16.85;11.32;;;16.50;62.70;;;;;;5008645;28;20109;-63
2022/04/28 11:42:26;;;;;;;13.40;11.30;;;16.50;62.70;;;;;;5012335;28;20033;-59
2022/04/28 11:44:54;;;;;;;15.40;12.20;;;16.50;62.90;;;;;;5014603;28;20026;-65
2022/04/28 11:47:20;;;;;;;16.63;12.40;;;16.60;63.20;;;;;;5014886;28;20088;-64
2022/04/28 11:49:49;;;;;;;18.95;12.00;;;16.50;63.00;;;;;;5013284;28;20072;-63
2022/04/28 11:52:25;;;;;;;14.35;10.68;;;16.60;63.00;;;;;;5013291;28;20120;-63
2022/04/28 11:54:56;;;;;;;15.63;12.00;;;16.60;62.90;;;;;;5012919;28;20029;-62
2022/04/28 11:57:22;;;;;;;14.65;11.68;;;16.60;62.80;;;;;;5011817;28;20475;-63
2022/04/28 11:59:48;;;;;;;14.82;12.27;;;16.60;62.80;;;;;;5012685;28;20034;-55
2022/04/28 12:02:34;;;;;;;17.25;13.20;;;16.60;63.80;;;;;;5011551;28;20044;-57
2022/04/28 12:05:02;;;;;;;19.42;12.73;;;16.70;63.00;;;;;;5011118;28;20026;-63
2022/04/28 12:07:32;;;;;;;17.58;12.05;;;16.60;63.10;;;;;;5012112;28;20539;-63
2022/04/28 12:15:28;;;;;;;16.52;12.65;;;16.70;63.70;;;;;;5011766;28;20497;-63
2022/04/28 12:20:57;;;;;;;15.10;11.60;;;16.70;63.40;;;;;;5013582;28;20395;-61
2022/04/28 12:23:37;;;;;;;17.10;12.88;;;16.70;63.30;;;;;;5013882;28;20026;-63
2022/04/28 12:26:06;;;;;;;16.73;10.70;;;16.80;63.40;;;;;;5013627;28;20080;-55
2022/04/28 12:28:40;;;;;;;16.13;12.65;;;16.70;63.20;;;;;;5014326;28;20033;-57
2022/04/28 12:31:07;;;;;;;10.05;9.02;;;16.70;62.70;;;;;;5013751;28;20387;-57
2022/04/28 12:33:34;;;;;;;16.05;10.80;;;16.80;62.90;;;;;;5013689;28;20396;-62
2022/04/28 12:36:14;;;;;;;15.38;11.35;;;16.80;62.60;;;;;;5013853;28;20108;-62
2022/04/28 12:38:59;;;;;;;14.13;10.63;;;16.80;62.70;;;;;;5009066;28;20084;-63
2022/04/28 12:41:27;;;;;;;19.02;13.82;;;16.80;62.90;;;;;;4994318;28;20026;-60
2022/04/28 12:43:59;;;;;;;20.00;12.50;;;16.90;62.40;;;;;;4994570;28;20026;-62
2022/04/28 12:46:34;;;;;;;18.88;13.45;;;16.80;62.70;;;;;;4994302;28;20054;-59
2022/04/28 12:49:08;;;;;;;18.70;13.93;;;16.80;62.00;;;;;;5006082;28;20025;-61
2022/04/28 12:51:44;;;;;;;22.90;12.48;;;16.90;62.20;;;;;;5013400;28;20032;-63
2022/04/28 12:54:22;;;;;;;14.40;8.73;;;16.90;62.40;;;;;;5013109;28;20073;-62
2022/04/28 12:57:03;;;;;;;14.02;12.00;;;16.90;63.10;;;;;;5013630;28;20053;-64
2022/04/28 12:59:37;;;;;;;12.43;9.98;;;16.90;62.40;;;;;;5013426;28;20045;-64
2022/04/28 13:02:04;;;;;;;16.35;12.70;;;16.90;62.50;;;;;;4994007;28;20481;-63
2022/04/28 13:04:35;;;;;;;16.77;13.38;;;17.00;62.00;;;;;;4994101;28;20096;-65
2022/04/28 13:07:01;;;;;;;15.18;10.88;;;17.00;61.40;;;;;;4994147;28;20449;-64
2022/04/28 13:09:29;;;;;;;18.00;13.07;;;17.00;61.90;;;;;;4993776;28;20033;-59
2022/04/28 13:11:56;;;;;;;11.30;9.10;;;17.00;61.30;;;;;;5010480;28;20084;-64
2022/04/28 13:14:22;;;;;;;13.05;9.13;;;17.00;62.40;;;;;;5013737;28;20034;-63
2022/04/28 13:16:47;;;;;;;17.15;13.60;;;17.00;62.20;;;;;;5012310;28;20014;-56
2022/04/28 13:19:14;;;;;;;16.35;13.30;;;17.00;60.60;;;;;;5009485;28;20080;-63